Estell Manor, New Jersey
Current Conditions -  °F | °C
As of 2:54 PM on Wednesday 17 Dec 2014 (Local Time) from KACY Reporting Station
Overcast Overcast  
Wind Chill: 51°   Ceiling: 4200
Heat Index: 51°   Visibility: 10mi
Dew Point: 35°   Wind: 20mph
Humidity: 54%   Direction: 280°W
Pressure: 29.88"   Gusts: 29mph
Location:  39.41°N, 74.74°W
Report Text: KACY 171954Z 28017G25KT 10SM OVC042 11/02 A2988 RMK AO2 SLP117 T01060017
Loading
Personal Weather Stations






























Interactive Weather Map New forecast layout! Learn more

10-Day Weather Forecast

Advertisements
Track Severe Weather on mobile